sensor_id;sensor_type;location;lat;lon;timestamp;pressure;altitude;pressure_sealevel;temperature;humidity
47785;BME280;35233;55.686;37.848;2022-11-23T00:00:35;98778.94;;;8.25;61.58
47785;BME280;35233;55.686;37.848;2022-11-23T00:03:01;98782.38;;;8.27;61.50
47785;BME280;35233;55.686;37.848;2022-11-23T00:05:28;98787.66;;;8.27;61.24
47785;BME280;35233;55.686;37.848;2022-11-23T00:07:54;98778.03;;;8.26;61.44
47785;BME280;35233;55.686;37.848;2022-11-23T00:10:20;98777.97;;;8.27;61.48
47785;BME280;35233;55.686;37.848;2022-11-23T00:12:45;98777.22;;;8.24;61.46
47785;BME280;35233;55.686;37.848;2022-11-23T00:15:13;98775.28;;;8.29;61.65
47785;BME280;35233;55.686;37.848;2022-11-23T00:17:39;98777.03;;;8.30;61.23
47785;BME280;35233;55.686;37.848;2022-11-23T00:20:06;98788.44;;;8.29;61.16
47785;BME280;35233;55.686;37.848;2022-11-23T00:22:31;98782.28;;;8.30;61.62
47785;BME280;35233;55.686;37.848;2022-11-23T00:24:57;98784.22;;;8.25;61.35
47785;BME280;35233;55.686;37.848;2022-11-23T00:27:22;98779.69;;;8.28;61.34
47785;BME280;35233;55.686;37.848;2022-11-23T00:29:48;98784.00;;;8.31;61.45
47785;BME280;35233;55.686;37.848;2022-11-23T00:32:13;98781.44;;;8.29;61.41
47785;BME280;35233;55.686;37.848;2022-11-23T00:34:39;98778.81;;;8.29;61.18
47785;BME280;35233;55.686;37.848;2022-11-23T00:37:04;98789.16;;;8.34;61.15
47785;BME280;35233;55.686;37.848;2022-11-23T00:39:30;98784.75;;;8.34;61.41
47785;BME280;35233;55.686;37.848;2022-11-23T00:41:55;98772.75;;;8.26;61.47
47785;BME280;35233;55.686;37.848;2022-11-23T00:44:21;98781.34;;;8.32;61.46
47785;BME280;35233;55.686;37.848;2022-11-23T00:46:46;98779.59;;;8.31;61.47
47785;BME280;35233;55.686;37.848;2022-11-23T00:49:12;98780.56;;;8.29;61.57
47785;BME280;35233;55.686;37.848;2022-11-23T00:51:37;98790.00;;;8.34;61.32
47785;BME280;35233;55.686;37.848;2022-11-23T00:54:04;98783.16;;;8.30;61.20
47785;BME280;35233;55.686;37.848;2022-11-23T00:56:31;98782.28;;;8.30;61.69
47785;BME280;35233;55.686;37.848;2022-11-23T00:58:58;98779.59;;;8.31;61.51
47785;BME280;35233;55.686;37.848;2022-11-23T01:01:26;98778.72;;;8.31;61.48
47785;BME280;35233;55.686;37.848;2022-11-23T01:03:53;98779.59;;;8.31;61.37
47785;BME280;35233;55.686;37.848;2022-11-23T01:06:22;98775.25;;;8.30;61.59
47785;BME280;35233;55.686;37.848;2022-11-23T01:08:50;98767.28;;;8.32;61.50
47785;BME280;35233;55.686;37.848;2022-11-23T01:11:16;98773.44;;;8.32;61.50
47785;BME280;35233;55.686;37.848;2022-11-23T01:13:43;98769.91;;;8.32;61.45
47785;BME280;35233;55.686;37.848;2022-11-23T01:16:13;98774.28;;;8.33;61.42
47785;BME280;35233;55.686;37.848;2022-11-23T01:18:39;98780.44;;;8.32;61.63
47785;BME280;35233;55.686;37.848;2022-11-23T01:21:05;98774.41;;;8.30;61.53
47785;BME280;35233;55.686;37.848;2022-11-23T01:23:30;98785.63;;;8.35;61.77
47785;BME280;35233;55.686;37.848;2022-11-23T01:25:56;98777.75;;;8.35;61.30
47785;BME280;35233;55.686;37.848;2022-11-23T01:28:22;98770.69;;;8.35;61.29
47785;BME280;35233;55.686;37.848;2022-11-23T01:30:47;98783.00;;;8.35;61.24
47785;BME280;35233;55.686;37.848;2022-11-23T01:33:13;98782.94;;;8.36;61.39
47785;BME280;35233;55.686;37.848;2022-11-23T01:35:38;98783.78;;;8.37;61.31
47785;BME280;35233;55.686;37.848;2022-11-23T01:38:04;98777.69;;;8.36;61.58
47785;BME280;35233;55.686;37.848;2022-11-23T01:40:30;98785.63;;;8.35;61.24
47785;BME280;35233;55.686;37.848;2022-11-23T01:42:59;98776.81;;;8.36;61.30
47785;BME280;35233;55.686;37.848;2022-11-23T01:45:39;98778.53;;;8.37;61.44
47785;BME280;35233;55.686;37.848;2022-11-23T01:48:14;98774.19;;;8.36;61.24
47785;BME280;35233;55.686;37.848;2022-11-23T01:50:41;98768.97;;;8.34;61.36
47785;BME280;35233;55.686;37.848;2022-11-23T01:53:07;98773.16;;;8.42;61.32
47785;BME280;35233;55.686;37.848;2022-11-23T01:55:33;98768.75;;;8.42;61.30
47785;BME280;35233;55.686;37.848;2022-11-23T01:57:59;98766.22;;;8.37;61.47
47785;BME280;35233;55.686;37.848;2022-11-23T02:00:25;98768.84;;;8.37;61.44
47785;BME280;35233;55.686;37.848;2022-11-23T02:02:55;98775.78;;;8.42;61.37
47785;BME280;35233;55.686;37.848;2022-11-23T02:05:26;98781.94;;;8.41;61.23
47785;BME280;35233;55.686;37.848;2022-11-23T02:07:53;98771.50;;;8.37;61.48
47785;BME280;35233;55.686;37.848;2022-11-23T02:10:19;98787.28;;;8.39;61.47
47785;BME280;35233;55.686;37.848;2022-11-23T02:12:45;98773.25;;;8.37;61.20
47785;BME280;35233;55.686;37.848;2022-11-23T02:15:11;98775.97;;;8.35;61.73
47785;BME280;35233;55.686;37.848;2022-11-23T02:17:36;98790.72;;;8.41;61.59
47785;BME280;35233;55.686;37.848;2022-11-23T02:25:24;98770.63;;;8.37;61.46
47785;BME280;35233;55.686;37.848;2022-11-23T02:27:53;98773.25;;;8.38;61.39
47785;BME280;35233;55.686;37.848;2022-11-23T02:30:19;98760.03;;;8.40;61.22
47785;BME280;35233;55.686;37.848;2022-11-23T02:32:45;98771.50;;;8.39;61.33
47785;BME280;35233;55.686;37.848;2022-11-23T02:35:10;98768.78;;;8.41;61.47
47785;BME280;35233;55.686;37.848;2022-11-23T02:37:36;98763.53;;;8.41;61.30
47785;BME280;35233;55.686;37.848;2022-11-23T02:40:11;98766.16;;;8.41;61.40
47785;BME280;35233;55.686;37.848;2022-11-23T02:42:41;98775.78;;;8.42;61.44
47785;BME280;35233;55.686;37.848;2022-11-23T02:45:18;98773.19;;;8.40;61.28
47785;BME280;35233;55.686;37.848;2022-11-23T02:47:46;98764.47;;;8.38;61.19
47785;BME280;35233;55.686;37.848;2022-11-23T02:50:13;98758.41;;;8.36;61.21
47785;BME280;35233;55.686;37.848;2022-11-23T02:52:39;98775.81;;;8.40;61.35
47785;BME280;35233;55.686;37.848;2022-11-23T02:55:05;98764.47;;;8.38;61.26
47785;BME280;35233;55.686;37.848;2022-11-23T02:57:30;98770.56;;;8.40;61.39
47785;BME280;35233;55.686;37.848;2022-11-23T02:59:56;98776.69;;;8.41;61.38
47785;BME280;35233;55.686;37.848;2022-11-23T03:02:21;98779.28;;;8.42;61.37
47785;BME280;35233;55.686;37.848;2022-11-23T03:04:47;98786.22;;;8.45;61.17
47785;BME280;35233;55.686;37.848;2022-11-23T03:07:12;98767.94;;;8.40;61.05
47785;BME280;35233;55.686;37.848;2022-11-23T03:09:38;98770.63;;;8.38;61.28
47785;BME280;35233;55.686;37.848;2022-11-23T03:12:03;98773.97;;;8.44;61.21
47785;BME280;35233;55.686;37.848;2022-11-23T03:14:29;98770.63;;;8.38;61.25
47785;BME280;35233;55.686;37.848;2022-11-23T03:16:54;98760.09;;;8.37;61.24
47785;BME280;35233;55.686;37.848;2022-11-23T03:19:20;98770.56;;;8.40;61.44
47785;BME280;35233;55.686;37.848;2022-11-23T03:21:45;98774.06;;;8.41;61.44
47785;BME280;35233;55.686;37.848;2022-11-23T03:24:11;98781.09;;;8.40;61.17
47785;BME280;35233;55.686;37.848;2022-11-23T03:26:36;98780.13;;;8.43;61.34
47785;BME280;35233;55.686;37.848;2022-11-23T03:29:02;98790.66;;;8.43;61.52
47785;BME280;35233;55.686;37.848;2022-11-23T03:31:27;98789.81;;;8.42;61.36
47785;BME280;35233;55.686;37.848;2022-11-23T03:33:53;98792.44;;;8.42;61.22
47785;BME280;35233;55.686;37.848;2022-11-23T03:36:18;98792.41;;;8.44;61.10
47785;BME280;35233;55.686;37.848;2022-11-23T03:38:44;98795.88;;;8.44;60.96
47785;BME280;35233;55.686;37.848;2022-11-23T03:41:09;98795.06;;;8.42;61.16
47785;BME280;35233;55.686;37.848;2022-11-23T03:43:35;98788.09;;;8.41;61.33
47785;BME280;35233;55.686;37.848;2022-11-23T03:46:00;98789.81;;;8.42;61.25
47785;BME280;35233;55.686;37.848;2022-11-23T03:48:26;98787.22;;;8.41;61.55
47785;BME280;35233;55.686;37.848;2022-11-23T03:50:51;98782.84;;;8.41;61.12
47785;BME280;35233;55.686;37.848;2022-11-23T03:53:17;98791.63;;;8.40;61.18
47785;BME280;35233;55.686;37.848;2022-11-23T03:55:44;98788.00;;;8.44;61.24
47785;BME280;35233;55.686;37.848;2022-11-23T03:58:10;98781.91;;;8.42;60.81
47785;BME280;35233;55.686;37.848;2022-11-23T04:00:36;98781.94;;;8.41;61.60
47785;BME280;35233;55.686;37.848;2022-11-23T04:03:01;98782.72;;;8.44;61.17
47785;BME280;35233;55.686;37.848;2022-11-23T04:05:27;98776.66;;;8.42;61.30
47785;BME280;35233;55.686;37.848;2022-11-23T04:07:52;98777.56;;;8.41;61.23
47785;BME280;35233;55.686;37.848;2022-11-23T04:10:18;98779.38;;;8.39;61.04
47785;BME280;35233;55.686;37.848;2022-11-23T04:12:44;98782.75;;;8.43;61.30
47785;BME280;35233;55.686;37.848;2022-11-23T04:15:14;98772.25;;;8.43;61.02
47785;BME280;35233;55.686;37.848;2022-11-23T04:17:39;98776.66;;;8.42;60.99
47785;BME280;35233;55.686;37.848;2022-11-23T04:20:05;98775.91;;;8.38;61.19
47785;BME280;35233;55.686;37.848;2022-11-23T04:22:31;98766.28;;;8.36;61.34
47785;BME280;35233;55.686;37.848;2022-11-23T04:24:56;98778.53;;;8.37;61.41
47785;BME280;35233;55.686;37.848;2022-11-23T04:27:22;98783.78;;;8.37;61.20
47785;BME280;35233;55.686;37.848;2022-11-23T04:29:48;98788.00;;;8.44;61.23
47785;BME280;35233;55.686;37.848;2022-11-23T04:32:13;98793.41;;;8.39;61.19
47785;BME280;35233;55.686;37.848;2022-11-23T04:34:39;98796.03;;;8.39;61.25
47785;BME280;35233;55.686;37.848;2022-11-23T04:37:04;98795.88;;;8.44;61.16
47785;BME280;35233;55.686;37.848;2022-11-23T04:39:30;98796.00;;;8.41;61.16
47785;BME280;35233;55.686;37.848;2022-11-23T04:41:55;98800.38;;;8.41;61.25
47785;BME280;35233;55.686;37.848;2022-11-23T04:44:21;98798.63;;;8.41;61.32
47785;BME280;35233;55.686;37.848;2022-11-23T04:46:46;98804.69;;;8.43;61.25
47785;BME280;35233;55.686;37.848;2022-11-23T04:49:14;98810.84;;;8.42;61.41
47785;BME280;35233;55.686;37.848;2022-11-23T04:51:40;98801.28;;;8.39;61.34
47785;BME280;35233;55.686;37.848;2022-11-23T04:54:05;98807.41;;;8.40;61.23
47785;BME280;35233;55.686;37.848;2022-11-23T04:56:31;98799.41;;;8.43;61.26
47785;BME280;35233;55.686;37.848;2022-11-23T04:58:56;98797.81;;;8.39;61.40
47785;BME280;35233;55.686;37.848;2022-11-23T05:01:22;98801.19;;;8.43;61.35
47785;BME280;35233;55.686;37.848;2022-11-23T05:03:47;98802.00;;;8.45;61.22
47785;BME280;35233;55.686;37.848;2022-11-23T05:06:13;98799.47;;;8.42;61.49
47785;BME280;35233;55.686;37.848;2022-11-23T05:08:38;98793.28;;;8.43;61.57
47785;BME280;35233;55.686;37.848;2022-11-23T05:11:04;98798.56;;;8.43;61.44
47785;BME280;35233;55.686;37.848;2022-11-23T05:13:30;98793.28;;;8.43;61.44
47785;BME280;35233;55.686;37.848;2022-11-23T05:15:55;98799.41;;;8.43;61.32
47785;BME280;35233;55.686;37.848;2022-11-23T05:18:21;98796.88;;;8.40;61.36
47785;BME280;35233;55.686;37.848;2022-11-23T05:20:46;98810.75;;;8.45;61.40
47785;BME280;35233;55.686;37.848;2022-11-23T05:23:12;98807.28;;;8.45;61.27
47785;BME280;35233;55.686;37.848;2022-11-23T05:25:38;98810.84;;;8.42;61.48
47785;BME280;35233;55.686;37.848;2022-11-23T05:28:04;98811.78;;;8.41;61.25
47785;BME280;35233;55.686;37.848;2022-11-23T05:30:29;98816.03;;;8.45;61.56
47785;BME280;35233;55.686;37.848;2022-11-23T05:33:01;98815.97;;;8.47;61.46
47785;BME280;35233;55.686;37.848;2022-11-23T05:35:28;98815.06;;;8.48;61.31
47785;BME280;35233;55.686;37.848;2022-11-23T05:37:54;98815.00;;;8.49;61.34
47785;BME280;35233;55.686;37.848;2022-11-23T05:40:20;98813.38;;;8.45;61.39
47785;BME280;35233;55.686;37.848;2022-11-23T05:42:45;98817.72;;;8.46;61.49
47785;BME280;35233;55.686;37.848;2022-11-23T05:45:11;98820.31;;;8.48;61.45
47785;BME280;35233;55.686;37.848;2022-11-23T05:47:36;98820.38;;;8.46;61.41
47785;BME280;35233;55.686;37.848;2022-11-23T05:50:02;98822.09;;;8.47;61.42
47785;BME280;35233;55.686;37.848;2022-11-23T05:52:27;98823.78;;;8.50;61.34
47785;BME280;35233;55.686;37.848;2022-11-23T05:54:53;98814.25;;;8.46;61.26
47785;BME280;35233;55.686;37.848;2022-11-23T05:57:18;98822.97;;;8.48;61.19
47785;BME280;35233;55.686;37.848;2022-11-23T05:59:46;98819.41;;;8.49;61.40
47785;BME280;35233;55.686;37.848;2022-11-23T06:02:12;98818.66;;;8.45;61.23
47785;BME280;35233;55.686;37.848;2022-11-23T06:04:37;98821.19;;;8.48;61.36
47785;BME280;35233;55.686;37.848;2022-11-23T06:07:03;98821.16;;;8.50;61.15
47785;BME280;35233;55.686;37.848;2022-11-23T06:09:29;98817.69;;;8.48;61.27
47785;BME280;35233;55.686;37.848;2022-11-23T06:11:55;98825.53;;;8.49;61.27
47785;BME280;35233;55.686;37.848;2022-11-23T06:14:20;98823.88;;;8.47;61.38
47785;BME280;35233;55.686;37.848;2022-11-23T06:16:46;98818.50;;;8.50;61.43
47785;BME280;35233;55.686;37.848;2022-11-23T06:19:12;98828.16;;;8.49;61.30
47785;BME280;35233;55.686;37.848;2022-11-23T06:21:37;98829.06;;;8.48;61.43
47785;BME280;35233;55.686;37.848;2022-11-23T06:24:03;98829.78;;;8.53;61.40
47785;BME280;35233;55.686;37.848;2022-11-23T06:26:29;98824.56;;;8.52;61.44
47785;BME280;35233;55.686;37.848;2022-11-23T06:28:54;98828.94;;;8.53;61.33
47785;BME280;35233;55.686;37.848;2022-11-23T06:31:20;98823.56;;;8.56;61.24
47785;BME280;35233;55.686;37.848;2022-11-23T06:33:45;98818.34;;;8.54;61.47
47785;BME280;35233;55.686;37.848;2022-11-23T06:36:11;98825.25;;;8.58;61.01
47785;BME280;35233;55.686;37.848;2022-11-23T06:38:36;98821.91;;;8.53;61.19
47785;BME280;35233;55.686;37.848;2022-11-23T06:41:03;98813.06;;;8.54;61.46
47785;BME280;35233;55.686;37.848;2022-11-23T06:43:29;98821.91;;;8.53;61.50
47785;BME280;35233;55.686;37.848;2022-11-23T06:45:55;98821.78;;;8.56;61.46
47785;BME280;35233;55.686;37.848;2022-11-23T06:48:21;98827.06;;;8.56;61.61
47785;BME280;35233;55.686;37.848;2022-11-23T06:50:47;98826.00;;;8.62;61.49
47785;BME280;35233;55.686;37.848;2022-11-23T06:53:12;98821.69;;;8.59;61.65
47785;BME280;35233;55.686;37.848;2022-11-23T06:55:38;98817.28;;;8.60;61.65
47785;BME280;35233;55.686;37.848;2022-11-23T06:58:04;98823.34;;;8.62;61.73
47785;BME280;35233;55.686;37.848;2022-11-23T07:00:31;98827.78;;;8.61;61.73
47785;BME280;35233;55.686;37.848;2022-11-23T07:02:56;98815.59;;;8.57;62.00
47785;BME280;35233;55.686;37.848;2022-11-23T07:05:23;98835.56;;;8.65;61.78
47785;BME280;35233;55.686;37.848;2022-11-23T07:07:49;98825.13;;;8.61;61.80
47785;BME280;35233;55.686;37.848;2022-11-23T07:10:14;98841.63;;;8.67;61.74
47785;BME280;35233;55.686;37.848;2022-11-23T07:12:40;98835.66;;;8.61;61.98
47785;BME280;35233;55.686;37.848;2022-11-23T07:15:07;98847.81;;;8.66;61.79
47785;BME280;35233;55.686;37.848;2022-11-23T07:17:37;98836.63;;;8.59;61.91
47785;BME280;35233;55.686;37.848;2022-11-23T07:20:03;98852.25;;;8.64;61.94
47785;BME280;35233;55.686;37.848;2022-11-23T07:22:28;98854.94;;;8.62;61.84
47785;BME280;35233;55.686;37.848;2022-11-23T07:24:54;98852.13;;;8.68;61.55
47785;BME280;35233;55.686;37.848;2022-11-23T07:27:19;98850.53;;;8.63;61.61
47785;BME280;35233;55.686;37.848;2022-11-23T07:29:45;98849.59;;;8.65;61.86
47785;BME280;35233;55.686;37.848;2022-11-23T07:32:10;98844.34;;;8.64;61.47
47785;BME280;35233;55.686;37.848;2022-11-23T07:34:41;98859.19;;;8.66;61.56
47785;BME280;35233;55.686;37.848;2022-11-23T07:37:10;98849.72;;;8.60;61.43
47785;BME280;35233;55.686;37.848;2022-11-23T07:39:35;98860.00;;;8.68;61.30
47785;BME280;35233;55.686;37.848;2022-11-23T07:42:02;98854.09;;;8.61;61.41
47785;BME280;35233;55.686;37.848;2022-11-23T07:44:27;98861.94;;;8.63;61.52
47785;BME280;35233;55.686;37.848;2022-11-23T07:46:53;98861.06;;;8.63;61.76
47785;BME280;35233;55.686;37.848;2022-11-23T07:49:19;98862.63;;;8.70;61.86
47785;BME280;35233;55.686;37.848;2022-11-23T07:51:47;98857.25;;;8.73;61.53
47785;BME280;35233;55.686;37.848;2022-11-23T07:54:12;98858.41;;;8.64;61.60
47785;BME280;35233;55.686;37.848;2022-11-23T07:56:42;98850.41;;;8.67;61.61
47785;BME280;35233;55.686;37.848;2022-11-23T07:59:07;98859.88;;;8.73;61.56
47785;BME280;35233;55.686;37.848;2022-11-23T08:01:33;98854.72;;;8.70;61.63
47785;BME280;35233;55.686;37.848;2022-11-23T08:03:58;98852.97;;;8.69;61.33
47785;BME280;35233;55.686;37.848;2022-11-23T08:06:24;98850.34;;;8.69;61.34
47785;BME280;35233;55.686;37.848;2022-11-23T08:08:49;98856.31;;;8.74;61.58
47785;BME280;35233;55.686;37.848;2022-11-23T08:11:15;98851.28;;;8.66;61.62
47785;BME280;35233;55.686;37.848;2022-11-23T08:13:43;98849.47;;;8.68;61.24
47785;BME280;35233;55.686;37.848;2022-11-23T08:16:08;98853.69;;;8.74;61.48
47785;BME280;35233;55.686;37.848;2022-11-23T08:18:34;98846.63;;;8.74;61.31
47785;BME280;35233;55.686;37.848;2022-11-23T08:21:00;98855.19;;;8.81;61.24
47785;BME280;35233;55.686;37.848;2022-11-23T08:23:26;98844.53;;;8.84;61.53
47785;BME280;35233;55.686;37.848;2022-11-23T08:25:52;98853.38;;;8.83;61.40
47785;BME280;35233;55.686;37.848;2022-11-23T08:28:18;98845.47;;;8.83;61.11
47785;BME280;35233;55.686;37.848;2022-11-23T08:30:44;98847.13;;;8.86;61.35
47785;BME280;35233;55.686;37.848;2022-11-23T08:33:11;98857.53;;;8.90;61.14
47785;BME280;35233;55.686;37.848;2022-11-23T08:35:38;98849.63;;;8.90;61.24
47785;BME280;35233;55.686;37.848;2022-11-23T08:38:05;98861.75;;;8.94;61.24
47785;BME280;35233;55.686;37.848;2022-11-23T08:40:31;98859.13;;;8.94;61.08
47785;BME280;35233;55.686;37.848;2022-11-23T08:42:57;98849.66;;;8.89;61.04
47785;BME280;35233;55.686;37.848;2022-11-23T08:45:22;98866.81;;;9.00;60.80
47785;BME280;35233;55.686;37.848;2022-11-23T08:47:48;98869.13;;;9.10;61.06
47785;BME280;35233;55.686;37.848;2022-11-23T08:50:15;98863.97;;;9.06;61.01
47785;BME280;35233;55.686;37.848;2022-11-23T08:52:41;98867.53;;;9.05;61.00
47785;BME280;35233;55.686;37.848;2022-11-23T08:55:07;98861.34;;;9.06;61.06
47785;BME280;35233;55.686;37.848;2022-11-23T08:57:33;98869.03;;;9.13;61.29
47785;BME280;35233;55.686;37.848;2022-11-23T08:59:58;98864.72;;;9.10;61.14
47785;BME280;35233;55.686;37.848;2022-11-23T09:02:24;98873.44;;;9.12;60.84
47785;BME280;35233;55.686;37.848;2022-11-23T09:04:49;98869.94;;;9.12;60.37
47785;BME280;35233;55.686;37.848;2022-11-23T09:07:15;98867.53;;;9.05;60.17
47785;BME280;35233;55.686;37.848;2022-11-23T09:09:40;98861.56;;;9.00;59.82
47785;BME280;35233;55.686;37.848;2022-11-23T09:12:06;98863.38;;;8.98;59.75
47785;BME280;35233;55.686;37.848;2022-11-23T09:14:31;98865.91;;;9.01;60.08
47785;BME280;35233;55.686;37.848;2022-11-23T09:16:59;98861.81;;;8.93;59.59
47785;BME280;35233;55.686;37.848;2022-11-23T09:19:26;98855.78;;;8.89;59.66
47785;BME280;35233;55.686;37.848;2022-11-23T09:21:51;98860.25;;;8.87;59.38
47785;BME280;35233;55.686;37.848;2022-11-23T09:24:18;98866.44;;;8.86;59.44
47785;BME280;35233;55.686;37.848;2022-11-23T09:26:44;98864.66;;;8.87;59.83
47785;BME280;35233;55.686;37.848;2022-11-23T09:29:09;98856.06;;;8.81;59.50
47785;BME280;35233;55.686;37.848;2022-11-23T09:31:35;98868.25;;;8.84;59.46
47785;BME280;35233;55.686;37.848;2022-11-23T09:34:00;98863.75;;;8.88;59.38
47785;BME280;35233;55.686;37.848;2022-11-23T09:36:38;98860.19;;;8.89;59.61
47785;BME280;35233;55.686;37.848;2022-11-23T09:39:06;98859.34;;;8.88;59.33
47785;BME280;35233;55.686;37.848;2022-11-23T09:45:01;98856.25;;;8.75;59.42
47785;BME280;35233;55.686;37.848;2022-11-23T09:52:44;98859.06;;;8.71;59.22
47785;BME280;35233;55.686;37.848;2022-11-23T09:55:35;98859.88;;;8.73;59.23
47785;BME280;35233;55.686;37.848;2022-11-23T09:58:05;98859.91;;;8.71;58.96
47785;BME280;35233;55.686;37.848;2022-11-23T10:01:03;98861.69;;;8.71;59.01
47785;BME280;35233;55.686;37.848;2022-11-23T10:03:37;98866.25;;;8.66;59.28
47785;BME280;35233;55.686;37.848;2022-11-23T10:06:23;98868.78;;;8.69;59.25
47785;BME280;35233;55.686;37.848;2022-11-23T10:08:54;98868.94;;;8.64;59.42
47785;BME280;35233;55.686;37.848;2022-11-23T10:11:34;98867.19;;;8.63;59.22
47785;BME280;35233;55.686;37.848;2022-11-23T10:22:34;98867.28;;;8.60;59.11
47785;BME280;35233;55.686;37.848;2022-11-23T10:25:13;98870.00;;;8.58;59.29
47785;BME280;35233;55.686;37.848;2022-11-23T10:27:39;98860.47;;;8.54;59.42
47785;BME280;35233;55.686;37.848;2022-11-23T10:30:11;98868.25;;;8.57;59.33
47785;BME280;35233;55.686;37.848;2022-11-23T10:32:43;98867.38;;;8.58;59.34
47785;BME280;35233;55.686;37.848;2022-11-23T10:35:16;98866.31;;;8.64;59.03
47785;BME280;35233;55.686;37.848;2022-11-23T10:37:42;98862.19;;;8.55;59.24
47785;BME280;35233;55.686;37.848;2022-11-23T10:40:23;98863.00;;;8.57;59.18
47785;BME280;35233;55.686;37.848;2022-11-23T10:42:56;98856.13;;;8.53;59.20
47785;BME280;35233;55.686;37.848;2022-11-23T10:45:25;98860.44;;;8.56;58.96
47785;BME280;35233;55.686;37.848;2022-11-23T10:47:56;98863.19;;;8.51;59.13
47785;BME280;35233;55.686;37.848;2022-11-23T10:50:36;98866.03;;;8.45;59.24
47785;BME280;35233;55.686;37.848;2022-11-23T10:55:48;98866.94;;;8.44;59.17
47785;BME280;35233;55.686;37.848;2022-11-23T10:58:27;98875.53;;;8.49;59.00
47785;BME280;35233;55.686;37.848;2022-11-23T11:03:30;98876.56;;;8.45;59.34
47785;BME280;35233;55.686;37.848;2022-11-23T11:05:57;98871.28;;;8.45;59.20
47785;BME280;35233;55.686;37.848;2022-11-23T11:08:32;98878.34;;;8.45;59.40
47785;BME280;35233;55.686;37.848;2022-11-23T11:11:04;98876.75;;;8.39;59.08
47785;BME280;35233;55.686;37.848;2022-11-23T11:16:02;98891.28;;;8.51;58.92
47785;BME280;35233;55.686;37.848;2022-11-23T11:18:33;98890.63;;;8.44;59.22
47785;BME280;35233;55.686;37.848;2022-11-23T11:21:05;98882.84;;;8.41;59.16
47785;BME280;35233;55.686;37.848;2022-11-23T11:23:32;98896.84;;;8.42;59.15
47785;BME280;35233;55.686;37.848;2022-11-23T11:26:24;98891.69;;;8.38;59.61
47785;BME280;35233;55.686;37.848;2022-11-23T11:28:56;98888.31;;;8.33;59.45
47785;BME280;35233;55.686;37.848;2022-11-23T11:31:56;98911.81;;;8.39;59.18
47785;BME280;35233;55.686;37.848;2022-11-23T11:34:29;98900.63;;;8.31;59.31
47785;BME280;35233;55.686;37.848;2022-11-23T11:37:13;98909.25;;;8.36;59.16
47785;BME280;35233;55.686;37.848;2022-11-23T11:39:50;98916.50;;;8.30;59.28
47785;BME280;35233;55.686;37.848;2022-11-23T11:42:32;98907.75;;;8.29;59.40
47785;BME280;35233;55.686;37.848;2022-11-23T11:45:00;98914.00;;;8.25;59.05
47785;BME280;35233;55.686;37.848;2022-11-23T11:47:32;98923.66;;;8.25;59.32
47785;BME280;35233;55.686;37.848;2022-11-23T11:50:02;98924.56;;;8.24;59.46
47785;BME280;35233;55.686;37.848;2022-11-23T11:52:36;98929.88;;;8.22;59.48
47785;BME280;35233;55.686;37.848;2022-11-23T11:55:20;98934.31;;;8.20;59.68
47785;BME280;35233;55.686;37.848;2022-11-23T12:00:19;98938.63;;;8.23;59.20
47785;BME280;35233;55.686;37.848;2022-11-23T12:05:42;98937.81;;;8.21;59.50
47785;BME280;35233;55.686;37.848;2022-11-23T12:10:56;98949.44;;;8.13;59.52
47785;BME280;35233;55.686;37.848;2022-11-23T12:13:34;98945.91;;;8.14;59.14
47785;BME280;35233;55.686;37.848;2022-11-23T12:19:16;98955.63;;;8.11;59.47
47785;BME280;35233;55.686;37.848;2022-11-23T12:30:21;98968.84;;;8.09;59.33
47785;BME280;35233;55.686;37.848;2022-11-23T12:33:17;98973.25;;;8.09;59.73
47785;BME280;35233;55.686;37.848;2022-11-23T12:36:00;98978.50;;;8.09;59.62
47785;BME280;35233;55.686;37.848;2022-11-23T12:49:27;98992.69;;;8.03;59.81
47785;BME280;35233;55.686;37.848;2022-11-23T12:55:01;99003.13;;;8.06;59.52
47785;BME280;35233;55.686;37.848;2022-11-23T12:57:45;98987.53;;;8.00;59.63
47785;BME280;35233;55.686;37.848;2022-11-23T13:00:14;99000.31;;;8.12;59.47
47785;BME280;35233;55.686;37.848;2022-11-23T13:22:16;99015.16;;;8.15;60.18
47785;BME280;35233;55.686;37.848;2022-11-23T13:25:23;99000.59;;;8.03;60.32
47785;BME280;35233;55.686;37.848;2022-11-23T13:27:53;99028.44;;;8.10;60.16
47785;BME280;35233;55.686;37.848;2022-11-23T13:33:01;99026.63;;;8.12;60.02
47785;BME280;35233;55.686;37.848;2022-11-23T13:40:36;99034.47;;;8.14;60.24
47785;BME280;35233;55.686;37.848;2022-11-23T13:43:15;99030.16;;;8.11;60.34
47785;BME280;35233;55.686;37.848;2022-11-23T13:45:42;99030.94;;;8.15;60.37
47785;BME280;35233;55.686;37.848;2022-11-23T13:50:56;99038.94;;;8.12;60.25
47785;BME280;35233;55.686;37.848;2022-11-23T13:53:41;99045.91;;;8.13;60.14
47785;BME280;35233;55.686;37.848;2022-11-23T13:56:45;99050.34;;;8.11;60.08
47785;BME280;35233;55.686;37.848;2022-11-23T14:04:33;99056.53;;;8.08;60.29
47785;BME280;35233;55.686;37.848;2022-11-23T14:07:14;99060.09;;;8.07;60.07
47785;BME280;35233;55.686;37.848;2022-11-23T14:13:19;99065.34;;;8.07;60.21
47785;BME280;35233;55.686;37.848;2022-11-23T14:15:51;99049.91;;;7.95;59.91
47785;BME280;35233;55.686;37.848;2022-11-23T14:18:38;99068.16;;;8.01;59.84
47785;BME280;35233;55.686;37.848;2022-11-23T14:35:31;99084.28;;;7.89;60.01
47785;BME280;35233;55.686;37.848;2022-11-23T14:41:12;99086.97;;;7.86;59.59
47785;BME280;35233;55.686;37.848;2022-11-23T14:43:40;99090.56;;;7.82;59.86
47785;BME280;35233;55.686;37.848;2022-11-23T14:46:16;99098.53;;;7.80;59.71
47785;BME280;35233;55.686;37.848;2022-11-23T14:48:44;99086.22;;;7.81;59.57
47785;BME280;35233;55.686;37.848;2022-11-23T14:51:21;99092.50;;;7.77;59.38
47785;BME280;35233;55.686;37.848;2022-11-23T14:53:50;99100.31;;;7.78;59.40
47785;BME280;35233;55.686;37.848;2022-11-23T14:56:38;99106.31;;;7.83;59.34
47785;BME280;35233;55.686;37.848;2022-11-23T14:59:26;99105.41;;;7.84;59.53
47785;BME280;35233;55.686;37.848;2022-11-23T15:01:58;99104.63;;;7.81;59.37
47785;BME280;35233;55.686;37.848;2022-11-23T15:04:26;99099.41;;;7.79;59.73
47785;BME280;35233;55.686;37.848;2022-11-23T15:07:12;99109.91;;;7.81;59.13